sensor_id;sensor_type;location;lat;lon;timestamp;temperature;humidity
75517;DHT22;64097;52.548;13.406;2023-07-31T06:03:16;22.40;62.50
75517;DHT22;64097;52.548;13.406;2023-07-31T06:05:42;22.40;62.60
75517;DHT22;64097;52.548;13.406;2023-07-31T06:08:08;22.40;62.70
75517;DHT22;64097;52.548;13.406;2023-07-31T06:10:33;22.40;62.80
75517;DHT22;64097;52.548;13.406;2023-07-31T06:13:00;22.40;62.90
75517;DHT22;64097;52.548;13.406;2023-07-31T06:15:25;22.40;63.00
75517;DHT22;64097;52.548;13.406;2023-07-31T06:17:51;22.50;62.90
75517;DHT22;64097;52.548;13.406;2023-07-31T06:20:17;22.40;63.00
75517;DHT22;64097;52.548;13.406;2023-07-31T06:22:43;22.50;62.90
75517;DHT22;64097;52.548;13.406;2023-07-31T06:25:08;22.40;62.90
75517;DHT22;64097;52.548;13.406;2023-07-31T06:27:34;22.40;63.30
75517;DHT22;64097;52.548;13.406;2023-07-31T06:30:00;22.40;63.20
75517;DHT22;64097;52.548;13.406;2023-07-31T06:32:26;22.50;63.60
75517;DHT22;64097;52.548;13.406;2023-07-31T06:34:52;22.50;63.50
75517;DHT22;64097;52.548;13.406;2023-07-31T06:37:17;22.50;63.40
75517;DHT22;64097;52.548;13.406;2023-07-31T06:39:43;22.50;63.50
75517;DHT22;64097;52.548;13.406;2023-07-31T06:42:09;22.50;63.60
75517;DHT22;64097;52.548;13.406;2023-07-31T06:44:34;22.50;63.60
75517;DHT22;64097;52.548;13.406;2023-07-31T06:47:00;22.60;63.70
75517;DHT22;64097;52.548;13.406;2023-07-31T06:49:25;22.60;63.70
75517;DHT22;64097;52.548;13.406;2023-07-31T06:51:51;22.60;63.70
75517;DHT22;64097;52.548;13.406;2023-07-31T06:54:17;22.60;63.50
75517;DHT22;64097;52.548;13.406;2023-07-31T06:56:42;22.60;63.40
75517;DHT22;64097;52.548;13.406;2023-07-31T06:59:08;22.60;64.20
75517;DHT22;64097;52.548;13.406;2023-07-31T07:01:34;22.70;63.40
75517;DHT22;64097;52.548;13.406;2023-07-31T07:03:59;22.70;63.20
75517;DHT22;64097;52.548;13.406;2023-07-31T07:06:25;22.70;63.20
75517;DHT22;64097;52.548;13.406;2023-07-31T07:08:51;22.70;63.20
75517;DHT22;64097;52.548;13.406;2023-07-31T07:11:16;22.70;63.10
75517;DHT22;64097;52.548;13.406;2023-07-31T07:13:42;22.80;63.10
75517;DHT22;64097;52.548;13.406;2023-07-31T07:16:08;22.80;62.90
75517;DHT22;64097;52.548;13.406;2023-07-31T07:18:33;22.80;62.90
75517;DHT22;64097;52.548;13.406;2023-07-31T07:20:59;22.80;62.70
75517;DHT22;64097;52.548;13.406;2023-07-31T07:23:27;22.80;62.70
75517;DHT22;64097;52.548;13.406;2023-07-31T07:25:53;22.80;62.80
75517;DHT22;64097;52.548;13.406;2023-07-31T07:28:18;22.80;62.90
75517;DHT22;64097;52.548;13.406;2023-07-31T07:30:44;22.80;62.70
75517;DHT22;64097;52.548;13.406;2023-07-31T07:33:10;22.80;62.70
75517;DHT22;64097;52.548;13.406;2023-07-31T07:35:37;22.80;62.60
75517;DHT22;64097;52.548;13.406;2023-07-31T07:38:03;22.80;62.60
75517;DHT22;64097;52.548;13.406;2023-07-31T07:40:29;22.80;62.60
75517;DHT22;64097;52.548;13.406;2023-07-31T07:42:54;22.90;62.50
75517;DHT22;64097;52.548;13.406;2023-07-31T07:45:20;22.90;62.50
75517;DHT22;64097;52.548;13.406;2023-07-31T07:47:46;22.90;62.40
75517;DHT22;64097;52.548;13.406;2023-07-31T07:50:11;23.00;62.50
75517;DHT22;64097;52.548;13.406;2023-07-31T07:52:37;23.00;62.70
75517;DHT22;64097;52.548;13.406;2023-07-31T07:55:03;23.00;62.70
75517;DHT22;64097;52.548;13.406;2023-07-31T07:57:29;23.10;62.60
75517;DHT22;64097;52.548;13.406;2023-07-31T07:59:55;23.10;62.40
75517;DHT22;64097;52.548;13.406;2023-07-31T08:02:22;23.10;62.40
75517;DHT22;64097;52.548;13.406;2023-07-31T08:04:47;23.10;62.30
75517;DHT22;64097;52.548;13.406;2023-07-31T08:07:14;23.10;62.20
75517;DHT22;64097;52.548;13.406;2023-07-31T08:09:40;23.10;62.40
75517;DHT22;64097;52.548;13.406;2023-07-31T08:12:07;23.10;62.50
75517;DHT22;64097;52.548;13.406;2023-07-31T08:14:32;23.10;62.50
75517;DHT22;64097;52.548;13.406;2023-07-31T08:16:58;23.10;62.70
75517;DHT22;64097;52.548;13.406;2023-07-31T08:19:24;23.10;62.80
75517;DHT22;64097;52.548;13.406;2023-07-31T08:21:50;23.20;62.80
75517;DHT22;64097;52.548;13.406;2023-07-31T08:24:16;23.10;62.70
75517;DHT22;64097;52.548;13.406;2023-07-31T08:26:42;23.20;62.90
75517;DHT22;64097;52.548;13.406;2023-07-31T08:29:08;23.20;62.90
75517;DHT22;64097;52.548;13.406;2023-07-31T08:31:34;23.20;62.80
75517;DHT22;64097;52.548;13.406;2023-07-31T08:34:00;23.10;62.60
75517;DHT22;64097;52.548;13.406;2023-07-31T08:36:27;23.10;62.60
75517;DHT22;64097;52.548;13.406;2023-07-31T08:38:53;23.10;62.60
75517;DHT22;64097;52.548;13.406;2023-07-31T08:41:18;23.10;62.60
75517;DHT22;64097;52.548;13.406;2023-07-31T08:43:46;23.10;62.70
75517;DHT22;64097;52.548;13.406;2023-07-31T08:46:12;23.10;62.80
75517;DHT22;64097;52.548;13.406;2023-07-31T08:48:41;23.10;63.00
75517;DHT22;64097;52.548;13.406;2023-07-31T08:51:08;23.10;63.10
75517;DHT22;64097;52.548;13.406;2023-07-31T08:53:34;23.20;63.10
75517;DHT22;64097;52.548;13.406;2023-07-31T08:56:00;23.20;63.10
75517;DHT22;64097;52.548;13.406;2023-07-31T08:58:32;23.20;63.10
75517;DHT22;64097;52.548;13.406;2023-07-31T09:01:02;23.30;63.00
75517;DHT22;64097;52.548;13.406;2023-07-31T09:03:33;23.30;62.90
75517;DHT22;64097;52.548;13.406;2023-07-31T09:05:59;23.30;62.80
75517;DHT22;64097;52.548;13.406;2023-07-31T09:08:26;23.40;62.60
75517;DHT22;64097;52.548;13.406;2023-07-31T09:11:00;23.40;62.60
75517;DHT22;64097;52.548;13.406;2023-07-31T09:13:29;23.40;62.60
75517;DHT22;64097;52.548;13.406;2023-07-31T09:15:55;23.40;62.70
75517;DHT22;64097;52.548;13.406;2023-07-31T09:18:20;23.50;62.80
75517;DHT22;64097;52.548;13.406;2023-07-31T09:21:01;23.50;62.70
75517;DHT22;64097;52.548;13.406;2023-07-31T09:23:49;23.50;62.40
75517;DHT22;64097;52.548;13.406;2023-07-31T09:26:31;23.50;62.60
75517;DHT22;64097;52.548;13.406;2023-07-31T09:28:58;23.50;62.60
75517;DHT22;64097;52.548;13.406;2023-07-31T09:31:42;23.50;62.50
75517;DHT22;64097;52.548;13.406;2023-07-31T09:34:08;23.50;62.60
75517;DHT22;64097;52.548;13.406;2023-07-31T09:36:47;23.50;62.60
75517;DHT22;64097;52.548;13.406;2023-07-31T09:39:15;23.50;62.90
75517;DHT22;64097;52.548;13.406;2023-07-31T09:41:53;23.50;62.90
75517;DHT22;64097;52.548;13.406;2023-07-31T09:44:19;23.40;63.10
75517;DHT22;64097;52.548;13.406;2023-07-31T09:46:45;23.40;63.20
75517;DHT22;64097;52.548;13.406;2023-07-31T09:49:12;23.40;63.40
75517;DHT22;64097;52.548;13.406;2023-07-31T09:51:42;23.40;63.60
75517;DHT22;64097;52.548;13.406;2023-07-31T09:54:15;23.40;63.70
75517;DHT22;64097;52.548;13.406;2023-07-31T09:56:45;23.40;63.60
75517;DHT22;64097;52.548;13.406;2023-07-31T09:59:13;23.40;63.70
75517;DHT22;64097;52.548;13.406;2023-07-31T10:01:43;23.40;63.80
75517;DHT22;64097;52.548;13.406;2023-07-31T10:04:10;23.40;63.80
75517;DHT22;64097;52.548;13.406;2023-07-31T10:06:37;23.50;63.70
75517;DHT22;64097;52.548;13.406;2023-07-31T10:09:09;23.50;63.70
75517;DHT22;64097;52.548;13.406;2023-07-31T10:11:42;23.50;63.70
75517;DHT22;64097;52.548;13.406;2023-07-31T10:14:18;23.50;63.60
75517;DHT22;64097;52.548;13.406;2023-07-31T10:16:45;23.60;63.60
75517;DHT22;64097;52.548;13.406;2023-07-31T10:19:11;23.60;63.50
75517;DHT22;64097;52.548;13.406;2023-07-31T10:21:37;23.60;63.30
75517;DHT22;64097;52.548;13.406;2023-07-31T10:24:04;23.60;63.00
75517;DHT22;64097;52.548;13.406;2023-07-31T10:26:31;23.70;63.00
75517;DHT22;64097;52.548;13.406;2023-07-31T10:28:58;23.70;62.70
75517;DHT22;64097;52.548;13.406;2023-07-31T10:31:27;23.70;62.70
75517;DHT22;64097;52.548;13.406;2023-07-31T10:33:54;23.70;62.80
75517;DHT22;64097;52.548;13.406;2023-07-31T10:36:21;23.70;62.90
75517;DHT22;64097;52.548;13.406;2023-07-31T10:38:49;23.70;63.00
75517;DHT22;64097;52.548;13.406;2023-07-31T10:41:16;23.70;63.00
75517;DHT22;64097;52.548;13.406;2023-07-31T10:43:42;23.70;63.10
75517;DHT22;64097;52.548;13.406;2023-07-31T10:46:09;23.70;63.00
75517;DHT22;64097;52.548;13.406;2023-07-31T10:48:35;23.70;62.90
75517;DHT22;64097;52.548;13.406;2023-07-31T10:51:15;23.70;63.00
75517;DHT22;64097;52.548;13.406;2023-07-31T10:53:42;23.70;63.00
75517;DHT22;64097;52.548;13.406;2023-07-31T10:56:09;23.70;62.90
75517;DHT22;64097;52.548;13.406;2023-07-31T10:58:38;23.80;63.00
75517;DHT22;64097;52.548;13.406;2023-07-31T11:01:05;23.80;63.10
75517;DHT22;64097;52.548;13.406;2023-07-31T11:06:08;24.00;63.90
75517;DHT22;64097;52.548;13.406;2023-07-31T11:08:35;24.10;62.80
75517;DHT22;64097;52.548;13.406;2023-07-31T11:13:31;24.20;62.30
75517;DHT22;64097;52.548;13.406;2023-07-31T11:15:57;24.20;62.10
75517;DHT22;64097;52.548;13.406;2023-07-31T11:18:23;24.30;62.10
75517;DHT22;64097;52.548;13.406;2023-07-31T11:20:49;24.30;61.90
75517;DHT22;64097;52.548;13.406;2023-07-31T11:23:16;24.40;61.60
75517;DHT22;64097;52.548;13.406;2023-07-31T11:25:42;24.40;61.20
75517;DHT22;64097;52.548;13.406;2023-07-31T11:28:16;24.40;61.00
75517;DHT22;64097;52.548;13.406;2023-07-31T11:30:43;24.50;60.90
75517;DHT22;64097;52.548;13.406;2023-07-31T11:33:11;24.50;60.90
75517;DHT22;64097;52.548;13.406;2023-07-31T11:35:44;24.50;60.50
75517;DHT22;64097;52.548;13.406;2023-07-31T11:38:11;24.60;60.00
75517;DHT22;64097;52.548;13.406;2023-07-31T11:40:42;24.60;59.80
75517;DHT22;64097;52.548;13.406;2023-07-31T11:43:08;24.60;59.60
75517;DHT22;64097;52.548;13.406;2023-07-31T11:45:33;24.60;59.40
75517;DHT22;64097;52.548;13.406;2023-07-31T11:48:00;24.60;59.30
75517;DHT22;64097;52.548;13.406;2023-07-31T11:50:27;24.60;59.00
75517;DHT22;64097;52.548;13.406;2023-07-31T11:53:04;24.50;58.90
75517;DHT22;64097;52.548;13.406;2023-07-31T11:55:32;24.60;58.70
75517;DHT22;64097;52.548;13.406;2023-07-31T11:57:59;24.60;58.30
75517;DHT22;64097;52.548;13.406;2023-07-31T12:00:25;24.50;58.20
75517;DHT22;64097;52.548;13.406;2023-07-31T12:02:53;24.50;58.20
75517;DHT22;64097;52.548;13.406;2023-07-31T12:05:19;24.60;58.30
75517;DHT22;64097;52.548;13.406;2023-07-31T12:07:50;24.60;58.30
75517;DHT22;64097;52.548;13.406;2023-07-31T12:10:30;24.60;58.40
75517;DHT22;64097;52.548;13.406;2023-07-31T12:15:32;24.60;58.00
75517;DHT22;64097;52.548;13.406;2023-07-31T12:17:58;24.60;57.90
75517;DHT22;64097;52.548;13.406;2023-07-31T12:20:25;24.60;58.00
75517;DHT22;64097;52.548;13.406;2023-07-31T12:22:51;24.60;58.30
75517;DHT22;64097;52.548;13.406;2023-07-31T12:25:17;24.60;59.20
75517;DHT22;64097;52.548;13.406;2023-07-31T12:27:46;24.70;58.60
75517;DHT22;64097;52.548;13.406;2023-07-31T12:30:47;24.70;58.50
75517;DHT22;64097;52.548;13.406;2023-07-31T12:33:14;24.80;58.60
75517;DHT22;64097;52.548;13.406;2023-07-31T12:35:47;24.90;58.10
75517;DHT22;64097;52.548;13.406;2023-07-31T12:38:13;24.90;57.90
75517;DHT22;64097;52.548;13.406;2023-07-31T12:40:40;24.90;57.80
75517;DHT22;64097;52.548;13.406;2023-07-31T12:43:07;24.90;57.60
75517;DHT22;64097;52.548;13.406;2023-07-31T12:45:32;24.90;57.30
75517;DHT22;64097;52.548;13.406;2023-07-31T12:47:59;24.90;57.50
75517;DHT22;64097;52.548;13.406;2023-07-31T12:50:25;25.00;57.30
75517;DHT22;64097;52.548;13.406;2023-07-31T12:52:54;25.00;57.10
75517;DHT22;64097;52.548;13.406;2023-07-31T12:55:21;25.10;57.10
75517;DHT22;64097;52.548;13.406;2023-07-31T12:57:47;25.10;56.70
75517;DHT22;64097;52.548;13.406;2023-07-31T13:00:13;25.10;56.60
75517;DHT22;64097;52.548;13.406;2023-07-31T13:02:39;25.10;56.60
75517;DHT22;64097;52.548;13.406;2023-07-31T13:05:05;25.10;56.40
75517;DHT22;64097;52.548;13.406;2023-07-31T13:07:31;25.10;56.30
75517;DHT22;64097;52.548;13.406;2023-07-31T13:09:56;25.20;56.30
75517;DHT22;64097;52.548;13.406;2023-07-31T13:12:22;25.10;56.10
75517;DHT22;64097;52.548;13.406;2023-07-31T13:14:48;25.20;56.10
75517;DHT22;64097;52.548;13.406;2023-07-31T13:17:13;25.20;56.20
75517;DHT22;64097;52.548;13.406;2023-07-31T13:19:39;25.20;56.60
75517;DHT22;64097;52.548;13.406;2023-07-31T13:22:05;25.10;56.80
75517;DHT22;64097;52.548;13.406;2023-07-31T13:24:30;25.10;57.10
75517;DHT22;64097;52.548;13.406;2023-07-31T13:26:56;25.20;57.30
75517;DHT22;64097;52.548;13.406;2023-07-31T13:29:22;25.20;57.40
75517;DHT22;64097;52.548;13.406;2023-07-31T13:31:49;25.30;57.30
75517;DHT22;64097;52.548;13.406;2023-07-31T13:34:15;25.30;57.30
75517;DHT22;64097;52.548;13.406;2023-07-31T13:36:40;25.30;57.30
75517;DHT22;64097;52.548;13.406;2023-07-31T13:39:07;25.30;57.30
75517;DHT22;64097;52.548;13.406;2023-07-31T13:41:33;25.40;57.20
75517;DHT22;64097;52.548;13.406;2023-07-31T13:43:58;25.40;57.10
75517;DHT22;64097;52.548;13.406;2023-07-31T13:46:24;25.40;57.00
75517;DHT22;64097;52.548;13.406;2023-07-31T13:48:51;25.40;56.90
75517;DHT22;64097;52.548;13.406;2023-07-31T13:51:16;25.50;56.80
75517;DHT22;64097;52.548;13.406;2023-07-31T13:53:42;25.50;56.60
75517;DHT22;64097;52.548;13.406;2023-07-31T13:56:08;25.50;56.30
75517;DHT22;64097;52.548;13.406;2023-07-31T13:58:33;25.60;56.00
